Time;durP1;ratioP1;P1;durP2;ratioP2;P2;SDS_P1;SDS_P2;PMS_P1;PMS_P2;Temp;Humidity;BMP_temperature;BMP_pressure;BME280_temperature;BME280_humidity;BME280_pressure;Samples;Min_cycle;Max_cycle;Signal;HPM_P1;HPM_P2
2022/11/07 00:01:18;;;;;;;25.37;17.53;;;;;;;4.58;86.42;95928.11;1726895;81;21083;-68
2022/11/07 00:03:45;;;;;;;24.90;16.00;;;;;;;4.61;86.09;95930.75;1723368;81;21030;-69
2022/11/07 00:06:12;;;;;;;22.73;13.57;;;;;;;4.60;85.32;95932.92;1750706;82;21008;-69
2022/11/07 00:08:38;;;;;;;16.90;12.53;;;;;;;4.46;84.44;95935.38;1724421;82;21020;-69
2022/11/07 00:11:06;;;;;;;17.97;10.37;;;;;;;4.43;85.52;95939.28;1727633;82;21058;-69
2022/11/07 00:13:33;;;;;;;23.77;14.67;;;;;;;4.39;85.07;95948.83;1723641;82;21024;-69
2022/11/07 00:16:02;;;;;;;20.93;13.17;;;;;;;4.33;85.28;95939.20;1729178;82;21582;-69
2022/11/07 00:18:29;;;;;;;19.77;11.83;;;;;;;4.31;85.03;95936.13;1688161;84;21022;-69
2022/11/07 00:21:02;;;;;;;22.60;12.57;;;;;;;4.33;86.22;95941.81;1756940;81;21138;-69
2022/11/07 00:23:29;;;;;;;21.23;14.20;;;;;;;4.27;86.33;95944.34;1695143;83;21035;-69
2022/11/07 00:26:09;;;;;;;23.30;14.50;;;;;;;4.28;85.94;95942.59;1734797;82;21000;-69
2022/11/07 00:28:38;;;;;;;24.37;14.03;;;;;;;4.27;86.43;95936.50;1725365;82;21082;-68
2022/11/07 00:31:07;;;;;;;16.53;11.47;;;;;;;4.25;85.94;95938.21;1731854;82;21103;-69
2022/11/07 00:33:34;;;;;;;17.97;9.83;;;;;;;4.31;86.72;95938.30;1693471;84;21589;-69
2022/11/07 00:36:01;;;;;;;20.10;11.77;;;;;;;4.39;86.36;95941.43;1729938;82;21502;-69
2022/11/07 00:38:28;;;;;;;19.60;12.83;;;;;;;4.46;87.94;95932.77;1756048;81;21031;-69
2022/11/07 00:40:58;;;;;;;22.20;14.07;;;;;;;4.51;87.46;95937.20;1762127;81;21130;-69
2022/11/07 00:43:26;;;;;;;26.47;14.07;;;;;;;4.58;86.98;95942.05;1718188;81;21494;-68
2022/11/07 00:45:53;;;;;;;19.77;13.07;;;;;;;4.63;86.95;95932.52;1722786;82;21044;-69
2022/11/07 00:48:19;;;;;;;25.53;14.20;;;;;;;4.71;86.71;95943.95;1723122;82;21049;-69
2022/11/07 00:50:47;;;;;;;16.83;10.97;;;;;;;4.72;86.64;95943.07;1700234;84;21493;-69
2022/11/07 00:53:13;;;;;;;18.93;12.67;;;;;;;4.70;86.10;95942.61;1726567;82;21031;-69
2022/11/07 00:55:40;;;;;;;22.90;12.60;;;;;;;4.75;86.83;95935.69;1758162;81;21062;-69
2022/11/07 00:58:08;;;;;;;19.97;12.23;;;;;;;4.81;86.77;95938.78;1758655;81;21501;-69
2022/11/07 01:00:36;;;;;;;18.63;11.70;;;;;;;4.79;87.09;95936.17;1758390;81;21047;-69
2022/11/07 01:06:00;;;;;;;19.87;11.20;;;;;;;4.89;86.82;95935.80;1764529;81;21016;-68
2022/11/07 01:08:28;;;;;;;21.97;11.00;;;;;;;4.90;86.48;95929.72;1725368;82;21040;-68
2022/11/07 01:10:55;;;;;;;17.93;10.93;;;;;;;4.91;86.64;95937.59;1695922;83;21038;-69
2022/11/07 01:13:23;;;;;;;16.70;10.63;;;;;;;4.98;86.87;95928.91;1721464;83;21057;-69
2022/11/07 01:15:51;;;;;;;17.57;11.13;;;;;;;5.06;87.25;95925.48;1723396;83;21040;-69
2022/11/07 01:18:18;;;;;;;18.43;10.97;;;;;;;5.13;86.96;95919.45;1723725;83;21530;-68
2022/11/07 01:20:44;;;;;;;19.70;12.57;;;;;;;5.14;87.20;95916.86;1725952;83;20996;-69
2022/11/07 01:23:11;;;;;;;25.17;13.60;;;;;;;5.16;87.19;95914.23;1722264;83;21036;-69
2022/11/07 01:25:40;;;;;;;20.70;13.73;;;;;;;5.15;86.37;95917.72;1724603;83;21897;-69
2022/11/07 01:28:08;;;;;;;19.20;11.93;;;;;;;5.24;87.42;95919.52;1722061;83;21004;-69
2022/11/07 01:30:41;;;;;;;17.10;11.30;;;;;;;5.38;87.51;95915.27;1724148;83;21006;-69
2022/11/07 01:33:08;;;;;;;18.23;11.27;;;;;;;5.50;87.65;95908.80;1721414;83;20993;-69
2022/11/07 01:35:36;;;;;;;19.20;12.13;;;;;;;5.62;87.23;95910.19;1724382;83;21568;-69
2022/11/07 01:38:03;;;;;;;20.33;12.50;;;;;;;5.58;86.04;95910.16;1721842;83;21107;-69
2022/11/07 01:40:32;;;;;;;19.60;13.47;;;;;;;5.62;86.61;95910.63;1724767;82;21145;-69
2022/11/07 01:42:59;;;;;;;26.23;13.40;;;;;;;5.73;86.46;95905.44;1717589;83;21066;-68
2022/11/07 01:45:34;;;;;;;21.03;13.10;;;;;;;5.79;86.27;95897.61;1723404;81;21111;-69
2022/11/07 01:48:01;;;;;;;19.83;13.53;;;;;;;5.80;86.05;95898.94;1721420;82;21064;-68
2022/11/07 01:50:29;;;;;;;21.77;14.87;;;;;;;5.83;85.79;95896.33;1720259;83;21024;-69
2022/11/07 01:52:57;;;;;;;20.83;13.93;;;;;;;5.85;85.98;95896.34;1724489;83;21038;-69
2022/11/07 01:55:31;;;;;;;20.50;13.40;;;;;;;5.85;85.67;95897.66;1725430;83;21148;-69
2022/11/07 01:58:03;;;;;;;27.03;12.67;;;;;;;5.76;85.24;95902.39;1723965;81;21039;-69
2022/11/07 02:00:31;;;;;;;18.97;13.67;;;;;;;5.61;85.40;95900.56;1726322;83;21044;-69
2022/11/07 02:03:05;;;;;;;19.00;13.23;;;;;;;5.51;85.76;95907.92;1724871;83;21013;-69
2022/11/07 02:05:46;;;;;;;22.10;14.43;;;;;;;5.39;86.03;95905.23;1716455;83;21032;-68
2022/11/07 02:08:14;;;;;;;23.90;14.80;;;;;;;5.34;85.75;95906.94;1723125;83;21030;-69
2022/11/07 02:10:43;;;;;;;24.40;14.83;;;;;;;5.32;86.39;95909.56;1726162;83;20998;-69
2022/11/07 02:13:14;;;;;;;25.53;14.93;;;;;;;5.32;87.38;95905.64;1726834;83;21050;-69
2022/11/07 02:15:41;;;;;;;21.43;15.03;;;;;;;5.37;86.96;95912.22;1726334;83;21037;-70
2022/11/07 02:18:07;;;;;;;21.13;13.83;;;;;;;5.39;87.04;95907.84;1724750;83;21629;-69
2022/11/07 02:20:34;;;;;;;26.43;13.10;;;;;;;5.40;87.55;95910.92;1724415;83;21091;-69
2022/11/07 02:23:08;;;;;;;20.77;13.00;;;;;;;5.41;87.63;95904.81;1724429;83;21057;-69
2022/11/07 02:25:36;;;;;;;19.17;13.10;;;;;;;5.42;86.96;95910.06;1723973;83;22372;-69
2022/11/07 02:28:06;;;;;;;21.27;13.73;;;;;;;5.51;87.16;95903.13;1722785;83;21008;-68
2022/11/07 02:30:33;;;;;;;20.20;13.77;;;;;;;5.59;87.52;95894.48;1726082;83;21042;-69
2022/11/07 02:33:02;;;;;;;18.43;12.43;;;;;;;5.69;87.82;95894.50;1723344;83;21163;-69
2022/11/07 02:35:44;;;;;;;22.93;14.63;;;;;;;5.76;87.96;95898.91;1725173;83;21020;-68
2022/11/07 02:38:21;;;;;;;18.80;12.13;;;;;;;5.79;87.62;95895.86;1723983;83;21077;-68
2022/11/07 02:40:56;;;;;;;21.97;12.83;;;;;;;5.84;87.38;95904.61;1723987;83;21484;-68
2022/11/07 02:43:27;;;;;;;22.77;12.63;;;;;;;5.88;87.36;95898.10;1724630;83;21326;-69
2022/11/07 02:45:55;;;;;;;22.33;12.53;;;;;;;5.86;86.57;95897.64;1723366;82;21047;-69
2022/11/07 02:48:23;;;;;;;22.67;11.53;;;;;;;5.83;86.42;95903.31;1724232;82;21039;-69
2022/11/07 02:50:50;;;;;;;18.47;12.27;;;;;;;5.91;87.43;95899.41;1724484;83;20999;-69
2022/11/07 02:53:17;;;;;;;23.87;11.87;;;;;;;5.96;87.71;95907.76;1724510;83;21120;-69
2022/11/07 02:55:43;;;;;;;21.70;12.30;;;;;;;5.95;87.36;95909.08;1722458;83;21004;-69
2022/11/07 02:58:10;;;;;;;17.67;11.67;;;;;;;5.94;87.58;95900.33;1724999;82;21030;-69
2022/11/07 03:00:36;;;;;;;18.43;11.63;;;;;;;5.97;87.32;95905.60;1724456;83;21156;-69
2022/11/07 03:03:03;;;;;;;21.13;12.60;;;;;;;6.01;87.11;95904.72;1724966;83;21024;-69
2022/11/07 03:05:30;;;;;;;19.27;11.40;;;;;;;6.11;87.82;95902.15;1723681;83;21080;-68
2022/11/07 03:07:57;;;;;;;16.83;8.90;;;;;;;6.23;87.64;95895.64;1727131;83;21011;-69
2022/11/07 03:10:24;;;;;;;12.47;8.33;;;;;;;6.43;88.31;95894.39;1725373;82;21093;-69
2022/11/07 03:12:50;;;;;;;18.97;12.40;;;;;;;6.49;87.49;95899.19;1724799;82;21512;-69
2022/11/07 03:15:17;;;;;;;24.00;15.27;;;;;;;6.54;87.66;95897.02;1722921;83;21531;-69
2022/11/07 03:17:43;;;;;;;20.47;14.20;;;;;;;6.58;87.14;95898.80;1725425;82;21024;-69
2022/11/07 03:20:11;;;;;;;26.37;16.87;;;;;;;6.48;86.47;95909.69;1724541;83;21058;-69
2022/11/07 03:22:38;;;;;;;31.80;19.80;;;;;;;6.54;87.41;95911.45;1727775;83;21540;-69
2022/11/07 03:25:07;;;;;;;27.17;17.47;;;;;;;6.60;87.37;95904.89;1726292;83;21086;-69
2022/11/07 03:27:34;;;;;;;25.90;15.93;;;;;;;6.63;87.00;95911.03;1725349;83;21587;-69
2022/11/07 03:30:00;;;;;;;26.67;18.50;;;;;;;6.63;86.51;95912.34;1725455;83;21007;-69
2022/11/07 03:32:27;;;;;;;26.90;18.07;;;;;;;6.63;86.81;95911.47;1724749;83;21039;-69
2022/11/07 03:34:53;;;;;;;20.17;14.27;;;;;;;6.63;86.60;95904.92;1724643;83;21086;-69
2022/11/07 03:37:20;;;;;;;23.03;15.10;;;;;;;6.67;86.53;95907.52;1725188;83;21519;-69
2022/11/07 03:39:47;;;;;;;21.40;14.90;;;;;;;6.65;86.31;95909.30;1726442;83;21056;-69
2022/11/07 03:42:13;;;;;;;18.87;12.97;;;;;;;6.64;86.20;95907.52;1722055;82;21570;-69
2022/11/07 03:44:40;;;;;;;31.23;20.40;;;;;;;6.63;86.50;95905.78;1721359;82;21088;-69
2022/11/07 03:47:07;;;;;;;31.10;20.77;;;;;;;6.58;87.60;95911.45;1722898;83;21039;-69
2022/11/07 03:49:33;;;;;;;30.50;19.77;;;;;;;6.54;87.30;95913.63;1724584;83;21580;-69
2022/11/07 03:52:00;;;;;;;28.30;17.90;;;;;;;6.50;87.29;95918.41;1722690;83;21107;-69
2022/11/07 03:54:27;;;;;;;28.97;18.13;;;;;;;6.47;87.26;95914.48;1725452;83;21035;-69
2022/11/07 03:56:54;;;;;;;28.17;19.50;;;;;;;6.43;86.85;95918.84;1722911;83;21043;-69
2022/11/07 03:59:21;;;;;;;27.87;18.43;;;;;;;6.44;87.28;95915.34;1724440;83;21011;-69
2022/11/07 04:01:47;;;;;;;28.33;19.33;;;;;;;6.46;87.46;95914.92;1725448;83;21049;-69
2022/11/07 04:04:14;;;;;;;26.57;18.53;;;;;;;6.47;87.67;95919.28;1726595;83;21525;-68
2022/11/07 04:06:41;;;;;;;25.77;17.93;;;;;;;6.49;87.63;95917.98;1720649;83;21099;-68
2022/11/07 04:09:08;;;;;;;35.07;22.10;;;;;;;6.48;87.38;95917.11;1722766;83;21028;-69
2022/11/07 04:17:20;;;;;;;25.37;18.13;;;;;;;6.58;87.70;95922.39;1724216;83;20998;-69
2022/11/07 04:19:50;;;;;;;25.17;15.90;;;;;;;6.64;87.84;95916.70;1724900;83;21524;-69
2022/11/07 04:22:18;;;;;;;22.97;17.03;;;;;;;6.70;88.03;95909.27;1726238;82;21066;-69
2022/11/07 04:24:45;;;;;;;26.13;17.20;;;;;;;6.69;88.36;95913.65;1722742;83;21010;-69
2022/11/07 04:29:58;;;;;;;28.87;18.50;;;;;;;6.72;87.86;95914.95;1721644;83;21101;-69
2022/11/07 04:32:25;;;;;;;38.83;24.73;;;;;;;6.83;88.47;95916.72;1725080;83;21059;-69
2022/11/07 04:34:52;;;;;;;52.67;32.00;;;;;;;6.91;88.51;95916.31;1723283;83;21512;-69
2022/11/07 04:37:18;;;;;;;50.47;29.30;;;;;;;7.02;88.59;95917.17;1724815;83;21008;-69
2022/11/07 04:39:45;;;;;;;84.10;48.37;;;;;;;7.11;88.61;95912.39;1698359;83;21588;-69
2022/11/07 04:42:12;;;;;;;90.97;46.30;;;;;;;7.14;87.60;95915.00;1724826;83;21159;-69
2022/11/07 04:44:38;;;;;;;68.33;37.57;;;;;;;7.16;87.61;95918.51;1726275;83;21022;-69
2022/11/07 04:47:05;;;;;;;37.07;22.33;;;;;;;7.16;87.21;95918.51;1723534;83;21496;-69
2022/11/07 04:49:31;;;;;;;54.63;32.07;;;;;;;7.13;87.55;95928.57;1721669;83;21558;-69
2022/11/07 04:51:58;;;;;;;79.27;50.73;;;;;;;7.20;87.71;95921.99;1723304;83;21063;-69
2022/11/07 04:54:25;;;;;;;77.93;47.83;;;;;;;7.30;87.87;95926.36;1724442;83;21057;-69
2022/11/07 04:56:51;;;;;;;77.50;47.60;;;;;;;7.36;87.45;95918.05;1724687;83;21100;-69
2022/11/07 04:59:18;;;;;;;71.97;46.83;;;;;;;7.43;87.43;95920.66;1726348;83;21068;-69
2022/11/07 05:01:45;;;;;;;55.30;34.27;;;;;;;7.54;87.71;95925.48;1726353;83;21183;-69
2022/11/07 05:04:11;;;;;;;43.83;27.97;;;;;;;7.58;87.62;95920.63;1721465;82;21095;-69
2022/11/07 05:06:38;;;;;;;37.57;22.50;;;;;;;7.65;87.42;95931.57;1723551;83;21557;-69
2022/11/07 05:09:04;;;;;;;34.43;20.40;;;;;;;7.66;86.83;95926.77;1724813;83;21071;-69
2022/11/07 05:11:31;;;;;;;30.37;18.47;;;;;;;7.61;86.44;95923.28;1726528;83;21503;-70
2022/11/07 05:13:57;;;;;;;26.47;17.00;;;;;;;7.48;86.09;95921.08;1725736;83;21110;-69
2022/11/07 05:16:24;;;;;;;46.50;29.77;;;;;;;7.37;85.72;95917.17;1721744;83;21039;-69
2022/11/07 05:18:51;;;;;;;46.53;26.17;;;;;;;7.24;87.00;95924.63;1721721;83;21151;-69
2022/11/07 05:21:17;;;;;;;40.37;24.77;;;;;;;7.22;87.03;95932.06;1722439;82;21149;-69
2022/11/07 05:23:44;;;;;;;35.53;22.60;;;;;;;7.17;87.53;95929.42;1720679;83;21024;-69
2022/11/07 05:26:10;;;;;;;47.70;31.33;;;;;;;7.13;86.99;95937.75;1725941;83;20990;-69
2022/11/07 05:28:37;;;;;;;39.13;27.70;;;;;;;7.06;87.76;95936.44;1721640;83;21070;-69
2022/11/07 05:31:05;;;;;;;39.57;22.10;;;;;;;7.10;87.86;95942.11;1725345;83;20990;-69
2022/11/07 05:33:33;;;;;;;33.37;21.50;;;;;;;7.12;87.64;95940.36;1723661;83;21620;-69
2022/11/07 05:36:13;;;;;;;40.57;26.27;;;;;;;7.10;87.47;95950.84;1723695;83;20979;-69
2022/11/07 05:38:46;;;;;;;35.03;25.37;;;;;;;7.12;87.85;95950.41;1727810;83;21018;-69
2022/11/07 05:41:15;;;;;;;46.55;32.20;;;;;;;7.12;87.99;95950.41;1726588;83;21006;-69
2022/11/07 05:43:41;;;;;;;33.93;23.87;;;;;;;7.15;87.98;95949.55;1723459;83;21471;-69
2022/11/07 05:46:08;;;;;;;42.27;26.97;;;;;;;7.20;87.90;95950.86;1727387;83;21510;-69
2022/11/07 05:48:36;;;;;;;59.50;34.23;;;;;;;7.19;89.40;95953.06;1722318;83;21023;-70
2022/11/07 05:51:05;;;;;;;54.30;37.67;;;;;;;7.17;89.72;95947.80;1723066;83;21028;-70
2022/11/07 05:53:33;;;;;;;52.90;34.07;;;;;;;7.22;88.92;95951.30;1725993;83;21616;-69
2022/11/07 05:56:00;;;;;;;36.83;23.87;;;;;;;7.30;89.43;95953.92;1724444;83;21022;-69
2022/11/07 05:58:26;;;;;;;26.03;16.87;;;;;;;7.42;89.56;95953.05;1725054;83;21593;-69
2022/11/07 06:00:53;;;;;;;18.97;13.13;;;;;;;7.53;89.26;95964.41;1724091;83;21066;-69
2022/11/07 06:03:20;;;;;;;58.90;40.40;;;;;;;7.55;88.76;95970.09;1723747;83;21104;-68
2022/11/07 06:05:47;;;;;;;59.10;38.40;;;;;;;7.56;89.54;95971.00;1720934;81;21525;-64
2022/11/07 06:08:14;;;;;;;39.63;24.40;;;;;;;7.64;89.70;95965.28;1723181;83;21503;-68
2022/11/07 06:10:42;;;;;;;39.93;27.53;;;;;;;7.73;89.58;95963.94;1723044;83;21105;-68
2022/11/07 06:13:13;;;;;;;50.57;31.60;;;;;;;7.84;89.59;95970.52;1725547;83;21091;-68
2022/11/07 06:15:42;;;;;;;58.73;41.37;;;;;;;7.83;89.22;95977.94;1723296;83;21090;-68
2022/11/07 06:18:16;;;;;;;61.53;37.57;;;;;;;7.80;88.78;95975.33;1721172;83;21073;-74
2022/11/07 06:20:43;;;;;;;53.03;36.20;;;;;;;7.79;88.50;95985.41;1724056;83;21039;-71
2022/11/07 06:23:11;;;;;;;59.80;36.73;;;;;;;7.83;88.85;95989.76;1721797;83;21151;-74
2022/11/07 06:25:37;;;;;;;43.70;31.10;;;;;;;7.97;89.84;95993.25;1722642;83;21065;-68
2022/11/07 06:28:07;;;;;;;54.43;33.47;;;;;;;8.08;89.14;95988.41;1724931;82;21568;-67
2022/11/07 06:30:35;;;;;;;45.50;29.00;;;;;;;8.08;88.88;95994.53;1723460;81;21079;-70
2022/11/07 06:33:15;;;;;;;40.90;27.52;;;;;;;8.16;88.98;96001.94;1725306;83;21033;-77
2022/11/07 06:35:43;;;;;;;43.60;28.17;;;;;;;8.16;88.74;96006.33;1722129;82;21077;-71
2022/11/07 06:38:12;;;;;;;44.07;31.97;;;;;;;8.21;88.82;95995.37;1725004;83;21000;-76
2022/11/07 06:40:41;;;;;;;49.07;34.77;;;;;;;8.20;88.46;96001.06;1722705;81;21074;-75
2022/11/07 06:43:16;;;;;;;51.57;35.67;;;;;;;8.23;88.77;96003.68;1725904;83;21644;-68
2022/11/07 06:45:44;;;;;;;53.90;35.38;;;;;;;8.22;88.44;96005.02;1724069;83;21112;-71
2022/11/07 06:48:12;;;;;;;57.48;39.30;;;;;;;8.17;88.12;96008.10;1723062;83;21118;-72
2022/11/07 06:50:39;;;;;;;72.93;48.60;;;;;;;8.19;88.62;96012.48;1723787;83;21076;-69
2022/11/07 06:53:09;;;;;;;62.45;42.13;;;;;;;8.31;89.02;96011.98;1723429;83;21073;-68
2022/11/07 06:55:37;;;;;;;53.00;38.60;;;;;;;8.38;89.28;96017.22;1726932;83;21112;-69
2022/11/07 06:58:05;;;;;;;55.43;37.10;;;;;;;8.47;89.45;96017.68;1721252;83;21044;-69
2022/11/07 07:00:34;;;;;;;57.98;42.38;;;;;;;8.51;88.99;96015.91;1723765;83;21036;-69
2022/11/07 07:03:01;;;;;;;65.70;46.07;;;;;;;8.53;88.62;96012.38;1722993;83;21087;-69
2022/11/07 07:05:28;;;;;;;66.45;46.83;;;;;;;8.54;88.46;96019.83;1725736;83;21135;-68
2022/11/07 07:07:55;;;;;;;63.23;45.80;;;;;;;8.51;88.25;96025.97;1723899;83;20993;-70
2022/11/07 07:10:23;;;;;;;69.53;47.08;;;;;;;8.45;87.72;96021.63;1722946;82;21014;-69
2022/11/07 07:12:50;;;;;;;61.98;43.48;;;;;;;8.40;87.83;96023.39;1723902;83;21026;-69
2022/11/07 07:15:17;;;;;;;77.55;52.78;;;;;;;8.35;87.65;96015.92;1722042;83;21091;-70
2022/11/07 07:17:44;;;;;;;77.50;51.35;;;;;;;8.32;87.84;96017.70;1720806;82;21016;-73
2022/11/07 07:20:11;;;;;;;67.05;46.05;;;;;;;8.30;87.97;96015.52;1752901;81;21031;-70
2022/11/07 07:22:38;;;;;;;62.03;41.60;;;;;;;8.32;88.01;96009.81;1754693;81;21087;-74
2022/11/07 07:25:06;;;;;;;54.98;38.30;;;;;;;8.27;87.67;96003.25;1758498;81;21050;-73
2022/11/07 07:27:33;;;;;;;47.93;31.37;;;;;;;8.24;87.91;96004.13;1760071;81;21071;-71
2022/11/07 07:29:59;;;;;;;48.10;32.03;;;;;;;8.25;87.77;96020.78;1731078;81;21028;-70
2022/11/07 07:32:26;;;;;;;44.30;29.90;;;;;;;8.24;87.97;96014.66;1751472;82;21063;-70
2022/11/07 07:34:53;;;;;;;45.05;31.65;;;;;;;8.27;88.48;96012.90;1742030;82;21082;-71
2022/11/07 07:37:20;;;;;;;44.30;31.73;;;;;;;8.27;88.31;96024.28;1695255;84;21084;-71
2022/11/07 07:39:47;;;;;;;45.45;31.55;;;;;;;8.34;88.84;96015.91;1722634;83;21140;-71
2022/11/07 07:42:14;;;;;;;53.63;34.98;;;;;;;8.43;89.12;96016.80;1755399;81;21032;-69
2022/11/07 07:44:42;;;;;;;45.03;29.52;;;;;;;8.52;89.50;96006.70;1754969;80;21031;-73
2022/11/07 07:47:09;;;;;;;42.30;29.02;;;;;;;8.62;89.40;96008.86;1723997;81;21027;-69
2022/11/07 07:49:36;;;;;;;44.35;30.17;;;;;;;8.74;89.69;96008.77;1698888;84;21647;-70
2022/11/07 07:52:03;;;;;;;44.58;30.25;;;;;;;8.84;89.41;96005.66;1722141;83;20994;-75
2022/11/07 07:54:29;;;;;;;45.98;30.25;;;;;;;8.96;89.37;96009.55;1755685;81;21067;-70
2022/11/07 07:56:56;;;;;;;43.85;30.82;;;;;;;9.10;89.65;96006.84;1753757;81;21660;-71
2022/11/07 07:59:22;;;;;;;40.83;27.22;;;;;;;9.27;89.49;96006.72;1754703;81;21063;-72
2022/11/07 08:01:49;;;;;;;44.38;29.27;;;;;;;9.35;88.60;96010.20;1756809;81;21087;-75
2022/11/07 08:04:16;;;;;;;43.58;31.02;;;;;;;9.49;89.24;96002.17;1756953;81;21108;-77
2022/11/07 08:06:42;;;;;;;35.88;25.35;;;;;;;9.69;89.38;96009.92;1756733;81;21071;-75
2022/11/07 08:09:09;;;;;;;37.17;25.12;;;;;;;9.80;88.72;96004.55;1755423;81;21023;-75
2022/11/07 08:11:36;;;;;;;30.32;22.13;;;;;;;9.93;88.55;96011.02;1753987;81;21075;-77
2022/11/07 08:14:03;;;;;;;26.12;19.62;;;;;;;10.05;88.05;96002.55;1754864;80;21561;-72
2022/11/07 08:16:29;;;;;;;27.80;18.92;;;;;;;10.17;87.96;95998.02;1753789;81;21043;-71
2022/11/07 08:18:56;;;;;;;28.12;19.92;;;;;;;10.27;88.08;95993.98;1757222;81;21094;-67
2022/11/07 08:21:22;;;;;;;28.45;20.27;;;;;;;10.45;88.14;95991.16;1758164;81;21058;-70
2022/11/07 08:23:52;;;;;;;29.75;19.95;;;;;;;10.57;87.48;95994.97;1720629;81;21040;-69
2022/11/07 08:26:17;;;;;;;27.48;19.17;;;;;;;10.47;85.93;95993.79;1693806;84;21084;-72
2022/11/07 08:28:44;;;;;;;27.00;19.10;;;;;;;10.46;86.22;96003.47;1739635;82;21154;-70
2022/11/07 08:31:11;;;;;;;24.12;16.70;;;;;;;10.47;86.13;95994.66;1693568;83;21107;-72
2022/11/07 08:33:38;;;;;;;20.57;15.35;;;;;;;10.54;86.70;96006.02;1722234;82;20997;-67
2022/11/07 08:36:06;;;;;;;26.90;16.12;;;;;;;10.55;86.00;95998.52;1721614;82;21084;-70
2022/11/07 08:38:35;;;;;;;27.20;17.25;;;;;;;10.50;85.48;95998.57;1722487;82;21358;-70
2022/11/07 08:41:03;;;;;;;24.02;16.75;;;;;;;10.46;85.58;95998.62;1726593;82;21063;-67
2022/11/07 08:43:30;;;;;;;23.65;16.93;;;;;;;10.41;85.66;95998.70;1723463;81;21032;-66
2022/11/07 08:45:57;;;;;;;22.40;16.52;;;;;;;10.40;85.97;96003.08;1693907;84;21037;-71
2022/11/07 08:48:24;;;;;;;24.00;16.62;;;;;;;10.45;86.12;95992.92;1725803;83;21528;-64
2022/11/07 08:50:54;;;;;;;23.07;17.10;;;;;;;10.49;86.11;95995.52;1721254;82;21095;-64
2022/11/07 08:53:22;;;;;;;28.83;18.00;;;;;;;10.52;85.74;95993.28;1716553;80;21051;-65
2022/11/07 08:55:49;;;;;;;28.05;19.62;;;;;;;10.56;85.78;95994.55;1714973;82;21074;-65
2022/11/07 08:58:16;;;;;;;24.92;18.00;;;;;;;10.65;85.86;95999.28;1753339;81;21057;-66
2022/11/07 09:00:43;;;;;;;29.82;19.75;;;;;;;10.71;85.71;95998.78;1755002;82;21590;-65
2022/11/07 09:03:15;;;;;;;27.75;19.50;;;;;;;10.80;85.82;95998.64;1745400;81;21157;-66
2022/11/07 09:05:39;;;;;;;24.70;18.35;;;;;;;10.88;85.91;95998.53;1735862;82;21000;-66
2022/11/07 09:08:05;;;;;;;29.37;19.80;;;;;;;11.00;85.89;96001.47;1744078;82;21030;-66
2022/11/07 09:10:32;;;;;;;28.50;19.77;;;;;;;11.09;85.65;95999.13;1736579;81;22284;-67
2022/11/07 09:12:59;;;;;;;29.20;20.32;;;;;;;11.21;85.71;95998.54;1741982;82;21627;-63
2022/11/07 09:15:28;;;;;;;32.50;21.12;;;;;;;11.31;84.63;95997.06;1769615;78;21152;-65
2022/11/07 09:17:54;;;;;;;29.23;19.32;;;;;;;11.31;84.18;96001.02;1795335;79;21497;-65
2022/11/07 09:20:21;;;;;;;28.75;18.67;;;;;;;11.40;84.56;96000.44;1795364;79;21055;-65
2022/11/07 09:22:47;;;;;;;23.10;15.50;;;;;;;11.53;84.70;95993.64;1787948;79;21060;-69
2022/11/07 09:25:14;;;;;;;24.57;16.52;;;;;;;11.69;83.97;95996.03;1780094;79;21057;-66
2022/11/07 09:27:40;;;;;;;24.98;17.55;;;;;;;11.80;83.66;96002.91;1783696;80;21069;-68
2022/11/07 09:30:08;;;;;;;24.65;18.00;;;;;;;11.80;82.93;96002.91;1775942;80;21132;-69
2022/11/07 09:32:35;;;;;;;27.07;15.93;;;;;;;11.82;83.47;96000.66;1786395;80;21081;-67
2022/11/07 09:35:01;;;;;;;26.45;15.15;;;;;;;11.89;83.46;96004.08;1786598;80;21076;-63
2022/11/07 09:37:28;;;;;;;23.83;15.35;;;;;;;11.93;83.10;96007.11;1791454;79;21049;-66
2022/11/07 09:39:55;;;;;;;44.03;28.55;;;;;;;11.97;83.06;96001.30;1783398;80;21057;-65
2022/11/07 09:42:36;;;;;;;57.75;39.48;;;;;;;12.02;83.47;96006.06;1778104;80;21120;-72
2022/11/07 09:45:03;;;;;;;54.55;32.33;;;;;;;12.06;83.60;95999.83;1778503;80;21058;-68
2022/11/07 09:47:44;;;;;;;47.67;24.90;;;;;;;12.05;83.26;96004.70;1776197;80;21108;-63
2022/11/07 09:50:30;;;;;;;40.60;21.48;;;;;;;11.97;83.15;96004.84;1779739;80;21133;-63
2022/11/07 09:53:11;;;;;;;55.05;21.57;;;;;;;11.93;83.06;96005.78;1783099;80;21022;-66
2022/11/07 09:55:51;;;;;;;52.20;21.82;;;;;;;11.88;83.28;96008.50;1747890;80;21070;-69
2022/11/07 09:58:31;;;;;;;30.88;20.05;;;;;;;11.83;82.88;96005.48;1781349;80;21061;-63
2022/11/07 10:01:07;;;;;;;38.10;19.95;;;;;;;11.78;82.75;96008.20;1779917;80;21049;-65
2022/11/07 10:03:36;;;;;;;41.20;20.27;;;;;;;11.73;82.71;96007.41;1783475;80;21069;-62
2022/11/07 10:06:28;;;;;;;35.70;20.15;;;;;;;11.75;83.08;96001.66;1771862;80;21049;-63
2022/11/07 10:09:21;;;;;;;39.08;21.45;;;;;;;11.81;83.27;96004.18;1739501;82;21568;-64
2022/11/07 10:11:56;;;;;;;36.42;20.02;;;;;;;11.93;83.29;95999.63;1749620;82;21049;-63
2022/11/07 10:14:45;;;;;;;32.78;18.42;;;;;;;11.96;82.83;95994.28;1794189;79;21105;-63
2022/11/07 10:17:26;;;;;;;31.55;16.45;;;;;;;11.93;82.53;95999.17;1789029;79;20967;-63
2022/11/07 10:20:26;;;;;;;31.45;17.73;;;;;;;11.96;82.65;96000.89;1782656;79;21642;-63
2022/11/07 10:23:10;;;;;;;30.23;20.82;;;;;;;12.04;82.87;95997.66;1781762;79;21049;-63
2022/11/07 10:25:42;;;;;;;39.80;22.35;;;;;;;12.14;83.11;95996.59;1791214;80;21010;-64
2022/11/07 10:28:19;;;;;;;42.30;22.65;;;;;;;12.14;83.14;95991.30;1777382;79;21100;-65
2022/11/07 10:30:51;;;;;;;31.57;20.40;;;;;;;12.22;83.09;95992.48;1777086;80;21140;-64
2022/11/07 10:33:52;;;;;;;35.73;23.00;;;;;;;12.24;82.47;95995.97;1782174;79;21017;-64
2022/11/07 10:36:28;;;;;;;40.50;23.67;;;;;;;12.17;81.85;95988.62;1779930;79;21030;-63
2022/11/07 10:38:55;;;;;;;35.68;21.62;;;;;;;12.10;81.75;95987.84;1783208;79;21532;-63
2022/11/07 10:41:26;;;;;;;37.35;24.05;;;;;;;12.12;82.10;95986.05;1784631;79;21068;-63
2022/11/07 10:44:13;;;;;;;35.92;23.15;;;;;;;12.11;82.18;95984.29;1777394;79;20989;-64
2022/11/07 10:46:46;;;;;;;34.67;20.77;;;;;;;12.11;81.43;95978.13;1780343;80;21109;-62
2022/11/07 10:49:23;;;;;;;38.53;19.65;;;;;;;12.09;81.89;95978.15;1792235;79;21048;-63
2022/11/07 10:51:50;;;;;;;28.17;18.67;;;;;;;12.08;81.52;95979.06;1782963;79;21507;-63
2022/11/07 10:54:30;;;;;;;28.23;18.45;;;;;;;12.10;81.61;95973.76;1784950;80;21174;-62
2022/11/07 10:57:14;;;;;;;23.22;15.63;;;;;;;12.14;81.99;95972.78;1788084;79;21068;-63
2022/11/07 10:59:52;;;;;;;22.40;15.85;;;;;;;12.17;82.09;95974.07;1738360;81;21024;-63
2022/11/07 11:02:23;;;;;;;25.75;15.20;;;;;;;12.18;82.15;95966.55;1767237;80;21023;-62
2022/11/07 11:04:54;;;;;;;22.82;15.58;;;;;;;12.18;82.14;95977.58;1768885;80;21007;-63
2022/11/07 11:07:38;;;;;;;21.15;15.68;;;;;;;12.21;82.20;95968.26;1774427;80;21085;-64
2022/11/07 11:10:30;;;;;;;24.43;16.02;;;;;;;12.24;82.14;95978.77;1767379;80;21062;-64
2022/11/07 11:12:57;;;;;;;23.00;14.93;;;;;;;12.22;82.03;95973.95;1775186;80;21003;-62
2022/11/07 11:15:26;;;;;;;22.75;16.02;;;;;;;12.19;82.18;95962.12;1785383;80;21129;-63
2022/11/07 11:18:04;;;;;;;24.05;15.60;;;;;;;12.17;82.15;95965.23;1777488;80;21557;-63
2022/11/07 11:20:45;;;;;;;21.02;14.00;;;;;;;12.19;82.14;95969.59;1778712;79;21025;-62
2022/11/07 11:23:21;;;;;;;16.50;13.22;;;;;;;12.22;82.09;95964.70;1792457;80;20994;-62
2022/11/07 11:25:51;;;;;;;18.90;14.15;;;;;;;12.24;82.14;95970.84;1779793;80;21017;-63
2022/11/07 11:28:29;;;;;;;21.20;13.35;;;;;;;12.26;82.20;95967.27;1788090;80;21079;-62
2022/11/07 11:31:04;;;;;;;25.05;14.55;;;;;;;12.28;82.11;95964.59;1773966;80;21148;-63
2022/11/07 11:33:45;;;;;;;21.93;13.95;;;;;;;12.28;82.25;95969.44;1775725;80;21029;-64
2022/11/07 11:36:28;;;;;;;19.92;13.68;;;;;;;12.27;82.10;95963.73;1788580;80;20996;-63
2022/11/07 11:38:55;;;;;;;;;;;;;;;12.28;82.00;95964.14;1778783;80;21057;-63
2022/11/07 11:41:53;;;;;;;19.92;13.58;;;;;;;12.23;82.00;95965.14;1777812;80;20390;-63
2022/11/07 11:44:34;;;;;;;19.92;13.00;;;;;;;12.17;81.92;95956.88;1781140;80;21052;-63
2022/11/07 11:47:12;;;;;;;19.05;13.32;;;;;;;12.13;82.05;95962.66;1782708;80;21014;-62